sensor_id;sensor_type;location;lat;lon;timestamp;P1;durP1;ratioP1;P2;durP2;ratioP2
23101;SDS011;11720;51.214;22.574;2022-08-16T00:01:46;5.13;;;4.05;;
23101;SDS011;11720;51.214;22.574;2022-08-16T00:04:12;6.38;;;3.83;;
23101;SDS011;11720;51.214;22.574;2022-08-16T00:06:38;7.70;;;4.25;;
23101;SDS011;11720;51.214;22.574;2022-08-16T00:09:05;4.80;;;4.00;;
23101;SDS011;11720;51.214;22.574;2022-08-16T00:11:31;5.95;;;4.03;;
23101;SDS011;11720;51.214;22.574;2022-08-16T00:13:57;5.55;;;4.10;;
23101;SDS011;11720;51.214;22.574;2022-08-16T00:16:24;7.53;;;3.65;;
23101;SDS011;11720;51.214;22.574;2022-08-16T00:18:52;6.07;;;3.90;;
23101;SDS011;11720;51.214;22.574;2022-08-16T00:21:18;5.80;;;3.72;;
23101;SDS011;11720;51.214;22.574;2022-08-16T00:23:43;6.63;;;4.18;;
23101;SDS011;11720;51.214;22.574;2022-08-16T00:26:09;8.10;;;4.18;;
23101;SDS011;11720;51.214;22.574;2022-08-16T00:28:35;5.88;;;3.97;;
23101;SDS011;11720;51.214;22.574;2022-08-16T00:31:00;6.68;;;4.30;;
23101;SDS011;11720;51.214;22.574;2022-08-16T00:33:27;5.47;;;3.85;;
23101;SDS011;11720;51.214;22.574;2022-08-16T00:35:52;10.07;;;4.38;;
23101;SDS011;11720;51.214;22.574;2022-08-16T00:38:18;5.88;;;4.13;;
23101;SDS011;11720;51.214;22.574;2022-08-16T00:40:45;7.63;;;4.97;;
23101;SDS011;11720;51.214;22.574;2022-08-16T00:43:15;5.32;;;3.83;;
23101;SDS011;11720;51.214;22.574;2022-08-16T00:45:47;7.20;;;4.05;;
23101;SDS011;11720;51.214;22.574;2022-08-16T00:48:14;5.88;;;3.90;;
23101;SDS011;11720;51.214;22.574;2022-08-16T00:50:40;5.82;;;3.83;;
23101;SDS011;11720;51.214;22.574;2022-08-16T00:53:07;6.25;;;4.03;;
23101;SDS011;11720;51.214;22.574;2022-08-16T00:55:36;4.63;;;3.42;;
23101;SDS011;11720;51.214;22.574;2022-08-16T00:58:04;4.88;;;3.78;;
23101;SDS011;11720;51.214;22.574;2022-08-16T01:00:33;6.68;;;4.10;;
23101;SDS011;11720;51.214;22.574;2022-08-16T01:03:02;5.32;;;3.85;;
23101;SDS011;11720;51.214;22.574;2022-08-16T01:05:32;7.15;;;4.65;;
23101;SDS011;11720;51.214;22.574;2022-08-16T01:07:59;6.03;;;3.70;;
23101;SDS011;11720;51.214;22.574;2022-08-16T01:10:27;5.90;;;3.80;;
23101;SDS011;11720;51.214;22.574;2022-08-16T01:12:55;6.47;;;3.95;;
23101;SDS011;11720;51.214;22.574;2022-08-16T01:15:21;5.72;;;3.65;;
23101;SDS011;11720;51.214;22.574;2022-08-16T01:17:47;5.80;;;3.60;;
23101;SDS011;11720;51.214;22.574;2022-08-16T01:20:14;5.93;;;4.05;;
23101;SDS011;11720;51.214;22.574;2022-08-16T01:22:49;4.72;;;3.60;;
23101;SDS011;11720;51.214;22.574;2022-08-16T01:28:17;5.53;;;3.13;;
23101;SDS011;11720;51.214;22.574;2022-08-16T01:30:45;5.00;;;3.47;;
23101;SDS011;11720;51.214;22.574;2022-08-16T01:33:14;5.95;;;4.05;;
23101;SDS011;11720;51.214;22.574;2022-08-16T01:35:54;6.95;;;4.13;;
23101;SDS011;11720;51.214;22.574;2022-08-16T01:40:52;6.05;;;4.15;;
23101;SDS011;11720;51.214;22.574;2022-08-16T01:43:20;6.35;;;4.03;;
23101;SDS011;11720;51.214;22.574;2022-08-16T01:45:47;5.57;;;4.30;;
23101;SDS011;11720;51.214;22.574;2022-08-16T01:48:13;5.68;;;4.38;;
23101;SDS011;11720;51.214;22.574;2022-08-16T01:50:39;7.10;;;4.45;;
23101;SDS011;11720;51.214;22.574;2022-08-16T01:53:06;4.65;;;3.38;;
23101;SDS011;11720;51.214;22.574;2022-08-16T01:55:32;7.00;;;4.15;;
23101;SDS011;11720;51.214;22.574;2022-08-16T01:57:58;5.25;;;3.55;;
23101;SDS011;11720;51.214;22.574;2022-08-16T02:00:24;5.63;;;3.75;;
23101;SDS011;11720;51.214;22.574;2022-08-16T02:02:50;7.28;;;4.25;;
23101;SDS011;11720;51.214;22.574;2022-08-16T02:05:16;6.07;;;4.10;;
23101;SDS011;11720;51.214;22.574;2022-08-16T02:07:42;5.32;;;3.55;;
23101;SDS011;11720;51.214;22.574;2022-08-16T02:10:08;4.97;;;3.67;;
23101;SDS011;11720;51.214;22.574;2022-08-16T02:12:34;7.45;;;4.35;;
23101;SDS011;11720;51.214;22.574;2022-08-16T02:15:00;5.28;;;3.10;;
23101;SDS011;11720;51.214;22.574;2022-08-16T02:17:28;6.05;;;4.05;;
23101;SDS011;11720;51.214;22.574;2022-08-16T02:19:54;5.82;;;3.88;;
23101;SDS011;11720;51.214;22.574;2022-08-16T02:22:21;7.72;;;4.45;;
23101;SDS011;11720;51.214;22.574;2022-08-16T02:24:48;6.60;;;4.25;;
23101;SDS011;11720;51.214;22.574;2022-08-16T02:27:14;7.28;;;4.78;;
23101;SDS011;11720;51.214;22.574;2022-08-16T02:29:41;5.82;;;3.80;;
23101;SDS011;11720;51.214;22.574;2022-08-16T02:32:08;5.93;;;4.20;;
23101;SDS011;11720;51.214;22.574;2022-08-16T02:34:36;6.80;;;4.18;;
23101;SDS011;11720;51.214;22.574;2022-08-16T02:37:02;6.03;;;4.18;;
23101;SDS011;11720;51.214;22.574;2022-08-16T02:39:28;6.15;;;4.13;;
23101;SDS011;11720;51.214;22.574;2022-08-16T02:41:54;5.43;;;3.97;;
23101;SDS011;11720;51.214;22.574;2022-08-16T02:44:20;4.80;;;3.55;;
23101;SDS011;11720;51.214;22.574;2022-08-16T02:46:47;7.20;;;3.67;;
23101;SDS011;11720;51.214;22.574;2022-08-16T02:49:12;4.80;;;3.42;;
23101;SDS011;11720;51.214;22.574;2022-08-16T02:51:39;6.00;;;4.25;;
23101;SDS011;11720;51.214;22.574;2022-08-16T02:54:07;7.00;;;4.45;;
23101;SDS011;11720;51.214;22.574;2022-08-16T02:56:34;5.28;;;3.70;;
23101;SDS011;11720;51.214;22.574;2022-08-16T02:59:00;7.55;;;4.65;;
23101;SDS011;11720;51.214;22.574;2022-08-16T03:01:27;4.47;;;3.78;;
23101;SDS011;11720;51.214;22.574;2022-08-16T03:03:55;4.68;;;3.72;;
23101;SDS011;11720;51.214;22.574;2022-08-16T03:06:23;6.80;;;4.10;;
23101;SDS011;11720;51.214;22.574;2022-08-16T03:08:49;6.53;;;4.25;;
23101;SDS011;11720;51.214;22.574;2022-08-16T03:11:16;5.80;;;4.50;;
23101;SDS011;11720;51.214;22.574;2022-08-16T03:13:50;4.68;;;4.00;;
23101;SDS011;11720;51.214;22.574;2022-08-16T03:16:17;5.78;;;3.90;;
23101;SDS011;11720;51.214;22.574;2022-08-16T03:18:44;7.55;;;3.90;;
23101;SDS011;11720;51.214;22.574;2022-08-16T03:21:10;5.00;;;3.90;;
23101;SDS011;11720;51.214;22.574;2022-08-16T03:23:37;5.55;;;3.90;;
23101;SDS011;11720;51.214;22.574;2022-08-16T03:26:03;5.47;;;3.63;;
23101;SDS011;11720;51.214;22.574;2022-08-16T03:28:29;14.70;;;4.32;;
23101;SDS011;11720;51.214;22.574;2022-08-16T03:30:55;6.70;;;4.45;;
23101;SDS011;11720;51.214;22.574;2022-08-16T03:33:20;6.43;;;3.75;;
23101;SDS011;11720;51.214;22.574;2022-08-16T03:35:46;4.03;;;3.13;;
23101;SDS011;11720;51.214;22.574;2022-08-16T03:38:13;6.00;;;3.85;;
23101;SDS011;11720;51.214;22.574;2022-08-16T03:40:40;6.20;;;4.15;;
23101;SDS011;11720;51.214;22.574;2022-08-16T03:43:09;6.55;;;4.50;;
23101;SDS011;11720;51.214;22.574;2022-08-16T03:45:36;4.22;;;3.60;;
23101;SDS011;11720;51.214;22.574;2022-08-16T03:48:05;6.53;;;4.22;;
23101;SDS011;11720;51.214;22.574;2022-08-16T03:50:32;9.48;;;5.70;;
23101;SDS011;11720;51.214;22.574;2022-08-16T03:52:59;7.15;;;4.68;;
23101;SDS011;11720;51.214;22.574;2022-08-16T03:55:25;5.45;;;3.70;;
23101;SDS011;11720;51.214;22.574;2022-08-16T03:57:51;5.72;;;3.60;;
23101;SDS011;11720;51.214;22.574;2022-08-16T04:00:25;6.10;;;4.22;;
23101;SDS011;11720;51.214;22.574;2022-08-16T04:02:56;4.65;;;3.28;;
23101;SDS011;11720;51.214;22.574;2022-08-16T04:05:26;5.03;;;4.10;;
23101;SDS011;11720;51.214;22.574;2022-08-16T04:07:52;6.25;;;4.60;;
23101;SDS011;11720;51.214;22.574;2022-08-16T04:10:18;5.53;;;3.88;;
23101;SDS011;11720;51.214;22.574;2022-08-16T04:12:44;6.28;;;4.07;;
23101;SDS011;11720;51.214;22.574;2022-08-16T04:15:11;6.47;;;4.55;;
23101;SDS011;11720;51.214;22.574;2022-08-16T04:17:38;9.02;;;5.85;;
23101;SDS011;11720;51.214;22.574;2022-08-16T04:20:04;7.47;;;4.55;;
23101;SDS011;11720;51.214;22.574;2022-08-16T04:22:34;5.72;;;4.75;;
23101;SDS011;11720;51.214;22.574;2022-08-16T04:25:01;7.28;;;4.60;;
23101;SDS011;11720;51.214;22.574;2022-08-16T04:27:29;6.65;;;4.72;;
23101;SDS011;11720;51.214;22.574;2022-08-16T04:29:55;8.02;;;5.03;;
23101;SDS011;11720;51.214;22.574;2022-08-16T04:32:21;8.20;;;5.00;;
23101;SDS011;11720;51.214;22.574;2022-08-16T04:34:47;7.18;;;4.72;;
23101;SDS011;11720;51.214;22.574;2022-08-16T04:37:13;7.07;;;4.72;;
23101;SDS011;11720;51.214;22.574;2022-08-16T04:39:39;6.80;;;4.72;;
23101;SDS011;11720;51.214;22.574;2022-08-16T04:42:05;9.07;;;5.35;;
23101;SDS011;11720;51.214;22.574;2022-08-16T04:44:31;6.68;;;4.43;;
23101;SDS011;11720;51.214;22.574;2022-08-16T04:46:56;8.32;;;4.82;;
23101;SDS011;11720;51.214;22.574;2022-08-16T04:49:22;15.65;;;5.97;;
23101;SDS011;11720;51.214;22.574;2022-08-16T04:51:48;6.28;;;4.05;;
23101;SDS011;11720;51.214;22.574;2022-08-16T04:54:15;6.47;;;4.15;;
23101;SDS011;11720;51.214;22.574;2022-08-16T04:56:41;7.43;;;4.85;;
23101;SDS011;11720;51.214;22.574;2022-08-16T04:59:06;6.22;;;4.28;;
23101;SDS011;11720;51.214;22.574;2022-08-16T05:01:33;6.93;;;4.88;;
23101;SDS011;11720;51.214;22.574;2022-08-16T05:03:59;6.57;;;4.68;;
23101;SDS011;11720;51.214;22.574;2022-08-16T05:06:26;5.82;;;4.35;;
23101;SDS011;11720;51.214;22.574;2022-08-16T05:08:52;6.88;;;4.85;;
23101;SDS011;11720;51.214;22.574;2022-08-16T05:11:18;6.32;;;4.60;;
23101;SDS011;11720;51.214;22.574;2022-08-16T05:13:46;8.30;;;5.18;;
23101;SDS011;11720;51.214;22.574;2022-08-16T05:16:14;6.32;;;4.32;;
23101;SDS011;11720;51.214;22.574;2022-08-16T05:18:41;9.70;;;5.65;;
23101;SDS011;11720;51.214;22.574;2022-08-16T05:21:07;7.20;;;5.05;;
23101;SDS011;11720;51.214;22.574;2022-08-16T05:23:33;5.57;;;4.32;;
23101;SDS011;11720;51.214;22.574;2022-08-16T05:25:58;6.10;;;4.53;;
23101;SDS011;11720;51.214;22.574;2022-08-16T05:28:24;7.07;;;4.93;;
23101;SDS011;11720;51.214;22.574;2022-08-16T05:30:51;9.02;;;4.45;;
23101;SDS011;11720;51.214;22.574;2022-08-16T05:33:17;10.82;;;5.00;;
23101;SDS011;11720;51.214;22.574;2022-08-16T05:35:44;6.70;;;4.65;;
23101;SDS011;11720;51.214;22.574;2022-08-16T05:38:11;7.70;;;4.43;;
23101;SDS011;11720;51.214;22.574;2022-08-16T05:40:37;7.45;;;4.75;;
23101;SDS011;11720;51.214;22.574;2022-08-16T05:43:02;7.85;;;5.25;;
23101;SDS011;11720;51.214;22.574;2022-08-16T05:45:28;6.18;;;4.38;;
23101;SDS011;11720;51.214;22.574;2022-08-16T05:47:54;6.97;;;4.82;;
23101;SDS011;11720;51.214;22.574;2022-08-16T05:50:20;7.55;;;4.65;;
23101;SDS011;11720;51.214;22.574;2022-08-16T05:52:46;7.00;;;4.97;;
23101;SDS011;11720;51.214;22.574;2022-08-16T05:55:11;5.00;;;4.38;;
23101;SDS011;11720;51.214;22.574;2022-08-16T05:57:37;7.32;;;4.25;;
23101;SDS011;11720;51.214;22.574;2022-08-16T06:00:04;6.65;;;5.03;;
23101;SDS011;11720;51.214;22.574;2022-08-16T06:02:32;5.82;;;4.13;;
23101;SDS011;11720;51.214;22.574;2022-08-16T06:04:58;10.75;;;5.15;;
23101;SDS011;11720;51.214;22.574;2022-08-16T06:07:24;7.53;;;4.97;;
23101;SDS011;11720;51.214;22.574;2022-08-16T06:09:50;6.90;;;4.75;;
23101;SDS011;11720;51.214;22.574;2022-08-16T06:12:15;6.00;;;4.63;;
23101;SDS011;11720;51.214;22.574;2022-08-16T06:14:42;5.65;;;4.15;;
23101;SDS011;11720;51.214;22.574;2022-08-16T06:17:07;8.20;;;4.95;;
23101;SDS011;11720;51.214;22.574;2022-08-16T06:19:33;6.82;;;4.57;;
23101;SDS011;11720;51.214;22.574;2022-08-16T06:21:59;5.85;;;4.20;;
23101;SDS011;11720;51.214;22.574;2022-08-16T06:24:25;8.52;;;5.00;;
23101;SDS011;11720;51.214;22.574;2022-08-16T06:26:51;6.18;;;4.78;;
23101;SDS011;11720;51.214;22.574;2022-08-16T06:29:16;11.63;;;5.65;;
23101;SDS011;11720;51.214;22.574;2022-08-16T06:31:42;6.38;;;4.93;;
23101;SDS011;11720;51.214;22.574;2022-08-16T06:34:08;6.80;;;4.75;;
23101;SDS011;11720;51.214;22.574;2022-08-16T06:36:34;6.80;;;4.65;;
23101;SDS011;11720;51.214;22.574;2022-08-16T06:38:59;7.72;;;4.57;;
23101;SDS011;11720;51.214;22.574;2022-08-16T06:41:25;8.90;;;5.30;;
23101;SDS011;11720;51.214;22.574;2022-08-16T06:43:51;7.38;;;4.97;;
23101;SDS011;11720;51.214;22.574;2022-08-16T06:46:30;8.40;;;4.80;;
23101;SDS011;11720;51.214;22.574;2022-08-16T06:49:05;6.25;;;4.65;;
23101;SDS011;11720;51.214;22.574;2022-08-16T06:51:39;7.10;;;4.80;;
23101;SDS011;11720;51.214;22.574;2022-08-16T06:54:07;5.68;;;4.53;;
23101;SDS011;11720;51.214;22.574;2022-08-16T06:56:33;6.97;;;4.85;;
23101;SDS011;11720;51.214;22.574;2022-08-16T06:58:59;6.97;;;4.82;;
23101;SDS011;11720;51.214;22.574;2022-08-16T07:01:25;7.40;;;5.13;;
23101;SDS011;11720;51.214;22.574;2022-08-16T07:03:51;8.43;;;5.25;;
23101;SDS011;11720;51.214;22.574;2022-08-16T07:06:18;10.68;;;6.55;;
23101;SDS011;11720;51.214;22.574;2022-08-16T07:08:44;7.20;;;4.80;;
23101;SDS011;11720;51.214;22.574;2022-08-16T07:11:14;6.05;;;4.78;;
23101;SDS011;11720;51.214;22.574;2022-08-16T07:13:41;8.55;;;5.40;;
23101;SDS011;11720;51.214;22.574;2022-08-16T07:16:07;7.60;;;5.53;;
23101;SDS011;11720;51.214;22.574;2022-08-16T07:18:39;8.55;;;4.80;;
23101;SDS011;11720;51.214;22.574;2022-08-16T07:21:08;9.27;;;5.68;;
23101;SDS011;11720;51.214;22.574;2022-08-16T07:23:35;6.53;;;4.90;;
23101;SDS011;11720;51.214;22.574;2022-08-16T07:26:02;8.07;;;5.32;;
23101;SDS011;11720;51.214;22.574;2022-08-16T07:28:29;5.32;;;4.35;;
23101;SDS011;11720;51.214;22.574;2022-08-16T07:30:55;8.98;;;5.53;;
23101;SDS011;11720;51.214;22.574;2022-08-16T07:33:20;6.57;;;4.65;;
23101;SDS011;11720;51.214;22.574;2022-08-16T07:35:46;6.47;;;4.85;;
23101;SDS011;11720;51.214;22.574;2022-08-16T07:38:12;7.07;;;4.80;;
23101;SDS011;11720;51.214;22.574;2022-08-16T07:40:38;9.75;;;5.25;;
23101;SDS011;11720;51.214;22.574;2022-08-16T07:43:03;7.70;;;4.70;;
23101;SDS011;11720;51.214;22.574;2022-08-16T07:45:30;7.40;;;4.43;;
23101;SDS011;11720;51.214;22.574;2022-08-16T07:47:57;8.93;;;4.95;;
23101;SDS011;11720;51.214;22.574;2022-08-16T07:50:23;10.40;;;4.70;;
23101;SDS011;11720;51.214;22.574;2022-08-16T07:52:49;6.82;;;4.80;;
23101;SDS011;11720;51.214;22.574;2022-08-16T07:55:15;5.95;;;4.63;;
23101;SDS011;11720;51.214;22.574;2022-08-16T07:57:41;6.75;;;4.22;;
23101;SDS011;11720;51.214;22.574;2022-08-16T08:00:08;7.30;;;4.10;;
23101;SDS011;11720;51.214;22.574;2022-08-16T08:02:35;7.78;;;5.10;;
23101;SDS011;11720;51.214;22.574;2022-08-16T08:05:00;6.20;;;4.25;;
23101;SDS011;11720;51.214;22.574;2022-08-16T08:07:26;6.47;;;4.80;;
23101;SDS011;11720;51.214;22.574;2022-08-16T08:09:53;6.50;;;4.55;;
23101;SDS011;11720;51.214;22.574;2022-08-16T08:12:20;7.68;;;4.63;;
23101;SDS011;11720;51.214;22.574;2022-08-16T08:14:46;6.63;;;4.72;;
23101;SDS011;11720;51.214;22.574;2022-08-16T08:17:12;8.60;;;5.30;;
23101;SDS011;11720;51.214;22.574;2022-08-16T08:19:39;9.80;;;5.65;;
23101;SDS011;11720;51.214;22.574;2022-08-16T08:22:05;8.90;;;5.05;;
23101;SDS011;11720;51.214;22.574;2022-08-16T08:24:33;7.10;;;5.18;;
23101;SDS011;11720;51.214;22.574;2022-08-16T08:27:02;6.53;;;4.97;;
23101;SDS011;11720;51.214;22.574;2022-08-16T08:29:28;8.90;;;5.75;;
23101;SDS011;11720;51.214;22.574;2022-08-16T08:31:55;9.20;;;5.47;;
23101;SDS011;11720;51.214;22.574;2022-08-16T08:34:21;8.15;;;5.53;;
23101;SDS011;11720;51.214;22.574;2022-08-16T08:36:47;11.98;;;6.30;;
23101;SDS011;11720;51.214;22.574;2022-08-16T08:39:14;12.02;;;5.22;;
23101;SDS011;11720;51.214;22.574;2022-08-16T08:41:40;11.10;;;5.65;;
23101;SDS011;11720;51.214;22.574;2022-08-16T08:44:07;12.20;;;6.00;;
23101;SDS011;11720;51.214;22.574;2022-08-16T08:46:33;9.48;;;6.07;;
23101;SDS011;11720;51.214;22.574;2022-08-16T08:48:58;8.13;;;5.53;;
23101;SDS011;11720;51.214;22.574;2022-08-16T08:51:24;8.52;;;6.00;;
23101;SDS011;11720;51.214;22.574;2022-08-16T08:53:51;9.13;;;6.32;;
23101;SDS011;11720;51.214;22.574;2022-08-16T08:56:17;8.82;;;5.97;;
23101;SDS011;11720;51.214;22.574;2022-08-16T08:58:43;9.98;;;5.97;;
23101;SDS011;11720;51.214;22.574;2022-08-16T09:01:09;8.57;;;5.68;;
23101;SDS011;11720;51.214;22.574;2022-08-16T09:03:35;10.18;;;5.80;;
23101;SDS011;11720;51.214;22.574;2022-08-16T09:06:01;10.55;;;5.40;;
23101;SDS011;11720;51.214;22.574;2022-08-16T09:08:29;8.07;;;5.72;;
23101;SDS011;11720;51.214;22.574;2022-08-16T09:10:56;7.43;;;5.38;;
23101;SDS011;11720;51.214;22.574;2022-08-16T09:13:23;7.88;;;5.28;;
23101;SDS011;11720;51.214;22.574;2022-08-16T09:15:53;9.10;;;5.97;;
23101;SDS011;11720;51.214;22.574;2022-08-16T09:18:22;8.52;;;5.72;;
23101;SDS011;11720;51.214;22.574;2022-08-16T09:20:49;10.32;;;5.60;;
23101;SDS011;11720;51.214;22.574;2022-08-16T09:23:19;7.90;;;5.38;;
23101;SDS011;11720;51.214;22.574;2022-08-16T09:25:46;14.13;;;6.45;;
23101;SDS011;11720;51.214;22.574;2022-08-16T09:28:12;7.60;;;5.25;;
23101;SDS011;11720;51.214;22.574;2022-08-16T09:30:38;8.70;;;6.00;;
23101;SDS011;11720;51.214;22.574;2022-08-16T09:33:04;9.68;;;5.20;;
23101;SDS011;11720;51.214;22.574;2022-08-16T09:35:31;6.65;;;4.80;;
23101;SDS011;11720;51.214;22.574;2022-08-16T09:37:57;6.75;;;5.03;;
23101;SDS011;11720;51.214;22.574;2022-08-16T09:40:22;6.63;;;5.10;;
23101;SDS011;11720;51.214;22.574;2022-08-16T09:42:48;6.57;;;4.35;;
23101;SDS011;11720;51.214;22.574;2022-08-16T09:45:17;6.65;;;4.40;;
23101;SDS011;11720;51.214;22.574;2022-08-16T09:47:45;13.27;;;6.40;;
23101;SDS011;11720;51.214;22.574;2022-08-16T09:50:12;10.48;;;5.40;;
23101;SDS011;11720;51.214;22.574;2022-08-16T09:52:38;7.03;;;4.38;;
23101;SDS011;11720;51.214;22.574;2022-08-16T09:55:05;7.53;;;5.07;;
23101;SDS011;11720;51.214;22.574;2022-08-16T09:57:32;7.47;;;4.85;;
23101;SDS011;11720;51.214;22.574;2022-08-16T09:59:58;12.25;;;5.72;;
23101;SDS011;11720;51.214;22.574;2022-08-16T10:02:27;8.35;;;5.28;;
23101;SDS011;11720;51.214;22.574;2022-08-16T10:04:56;8.05;;;4.95;;
23101;SDS011;11720;51.214;22.574;2022-08-16T10:07:23;6.35;;;4.60;;
23101;SDS011;11720;51.214;22.574;2022-08-16T10:09:50;7.00;;;4.60;;
23101;SDS011;11720;51.214;22.574;2022-08-16T10:12:16;11.02;;;4.55;;
23101;SDS011;11720;51.214;22.574;2022-08-16T10:15:00;5.97;;;3.97;;
23101;SDS011;11720;51.214;22.574;2022-08-16T10:17:25;7.72;;;4.60;;
23101;SDS011;11720;51.214;22.574;2022-08-16T10:19:51;9.38;;;4.70;;
23101;SDS011;11720;51.214;22.574;2022-08-16T10:22:19;6.60;;;4.57;;
23101;SDS011;11720;51.214;22.574;2022-08-16T10:24:45;13.20;;;6.68;;
23101;SDS011;11720;51.214;22.574;2022-08-16T10:27:11;7.30;;;4.63;;
23101;SDS011;11720;51.214;22.574;2022-08-16T10:29:36;7.55;;;3.97;;
23101;SDS011;11720;51.214;22.574;2022-08-16T10:32:02;6.07;;;3.75;;
23101;SDS011;11720;51.214;22.574;2022-08-16T10:34:28;13.23;;;4.43;;
23101;SDS011;11720;51.214;22.574;2022-08-16T10:36:54;5.70;;;3.85;;
23101;SDS011;11720;51.214;22.574;2022-08-16T10:39:20;5.38;;;4.05;;
23101;SDS011;11720;51.214;22.574;2022-08-16T10:41:46;6.50;;;4.13;;
23101;SDS011;11720;51.214;22.574;2022-08-16T10:44:12;6.78;;;4.28;;
23101;SDS011;11720;51.214;22.574;2022-08-16T10:46:39;5.50;;;3.95;;
23101;SDS011;11720;51.214;22.574;2022-08-16T10:49:05;7.10;;;4.22;;
23101;SDS011;11720;51.214;22.574;2022-08-16T10:51:31;8.30;;;4.30;;
23101;SDS011;11720;51.214;22.574;2022-08-16T10:53:57;6.32;;;3.78;;
23101;SDS011;11720;51.214;22.574;2022-08-16T10:56:24;5.47;;;3.95;;
23101;SDS011;11720;51.214;22.574;2022-08-16T10:58:50;10.00;;;4.43;;
23101;SDS011;11720;51.214;22.574;2022-08-16T11:01:16;6.35;;;3.88;;
23101;SDS011;11720;51.214;22.574;2022-08-16T11:03:42;4.82;;;3.15;;
23101;SDS011;11720;51.214;22.574;2022-08-16T11:06:08;7.15;;;3.42;;
23101;SDS011;11720;51.214;22.574;2022-08-16T11:08:34;7.07;;;4.53;;
23101;SDS011;11720;51.214;22.574;2022-08-16T11:11:02;6.43;;;3.92;;
23101;SDS011;11720;51.214;22.574;2022-08-16T11:13:29;8.65;;;4.60;;
23101;SDS011;11720;51.214;22.574;2022-08-16T11:15:55;6.00;;;3.78;;
23101;SDS011;11720;51.214;22.574;2022-08-16T11:18:21;11.50;;;5.53;;
23101;SDS011;11720;51.214;22.574;2022-08-16T11:20:47;6.30;;;3.97;;
23101;SDS011;11720;51.214;22.574;2022-08-16T11:23:13;5.00;;;3.75;;
23101;SDS011;11720;51.214;22.574;2022-08-16T11:25:39;7.80;;;4.38;;
23101;SDS011;11720;51.214;22.574;2022-08-16T11:28:05;6.10;;;3.95;;
23101;SDS011;11720;51.214;22.574;2022-08-16T11:30:32;4.93;;;3.67;;
23101;SDS011;11720;51.214;22.574;2022-08-16T11:32:59;6.45;;;4.32;;
23101;SDS011;11720;51.214;22.574;2022-08-16T11:35:26;6.25;;;4.60;;
23101;SDS011;11720;51.214;22.574;2022-08-16T11:37:57;4.88;;;3.97;;
23101;SDS011;11720;51.214;22.574;2022-08-16T11:40:28;7.57;;;4.35;;
23101;SDS011;11720;51.214;22.574;2022-08-16T11:42:57;6.25;;;3.88;;
23101;SDS011;11720;51.214;22.574;2022-08-16T11:45:23;9.27;;;4.55;;
23101;SDS011;11720;51.214;22.574;2022-08-16T11:47:48;8.70;;;4.70;;
23101;SDS011;11720;51.214;22.574;2022-08-16T11:50:14;6.30;;;4.10;;
23101;SDS011;11720;51.214;22.574;2022-08-16T11:52:40;5.07;;;4.22;;
23101;SDS011;11720;51.214;22.574;2022-08-16T11:55:08;7.15;;;4.63;;
23101;SDS011;11720;51.214;22.574;2022-08-16T11:57:36;6.15;;;4.28;;
23101;SDS011;11720;51.214;22.574;2022-08-16T12:00:06;4.93;;;3.70;;
23101;SDS011;11720;51.214;22.574;2022-08-16T12:02:35;5.18;;;3.80;;
23101;SDS011;11720;51.214;22.574;2022-08-16T12:05:02;6.65;;;4.10;;
23101;SDS011;11720;51.214;22.574;2022-08-16T12:07:30;7.07;;;4.25;;
23101;SDS011;11720;51.214;22.574;2022-08-16T12:09:56;5.53;;;4.10;;
23101;SDS011;11720;51.214;22.574;2022-08-16T12:12:22;5.22;;;3.83;;
23101;SDS011;11720;51.214;22.574;2022-08-16T12:14:48;6.13;;;4.53;;
23101;SDS011;11720;51.214;22.574;2022-08-16T12:17:14;4.82;;;3.63;;
23101;SDS011;11720;51.214;22.574;2022-08-16T12:19:40;6.03;;;4.18;;
23101;SDS011;11720;51.214;22.574;2022-08-16T12:22:06;5.93;;;3.65;;
23101;SDS011;11720;51.214;22.574;2022-08-16T12:24:32;6.47;;;4.13;;
23101;SDS011;11720;51.214;22.574;2022-08-16T12:26:58;4.10;;;3.10;;
23101;SDS011;11720;51.214;22.574;2022-08-16T12:29:24;5.13;;;3.42;;
23101;SDS011;11720;51.214;22.574;2022-08-16T12:31:50;5.50;;;3.88;;
23101;SDS011;11720;51.214;22.574;2022-08-16T12:34:17;5.88;;;3.67;;
23101;SDS011;11720;51.214;22.574;2022-08-16T12:36:43;4.57;;;3.45;;
23101;SDS011;11720;51.214;22.574;2022-08-16T12:39:10;4.22;;;3.00;;
23101;SDS011;11720;51.214;22.574;2022-08-16T12:41:37;4.35;;;3.42;;
23101;SDS011;11720;51.214;22.574;2022-08-16T12:44:03;6.90;;;3.58;;
23101;SDS011;11720;51.214;22.574;2022-08-16T12:46:30;4.95;;;3.20;;
23101;SDS011;11720;51.214;22.574;2022-08-16T12:48:57;4.53;;;3.53;;
23101;SDS011;11720;51.214;22.574;2022-08-16T12:51:30;8.20;;;4.47;;
23101;SDS011;11720;51.214;22.574;2022-08-16T12:54:00;4.57;;;3.58;;
23101;SDS011;11720;51.214;22.574;2022-08-16T12:56:31;4.88;;;3.55;;
23101;SDS011;11720;51.214;22.574;2022-08-16T12:58:59;5.30;;;4.07;;
23101;SDS011;11720;51.214;22.574;2022-08-16T13:01:29;6.75;;;4.15;;
23101;SDS011;11720;51.214;22.574;2022-08-16T13:03:58;5.38;;;4.15;;
23101;SDS011;11720;51.214;22.574;2022-08-16T13:06:25;6.22;;;4.25;;
23101;SDS011;11720;51.214;22.574;2022-08-16T13:08:51;6.45;;;5.05;;
23101;SDS011;11720;51.214;22.574;2022-08-16T13:11:19;5.35;;;3.85;;
23101;SDS011;11720;51.214;22.574;2022-08-16T13:13:59;5.75;;;3.65;;
23101;SDS011;11720;51.214;22.574;2022-08-16T13:16:25;4.97;;;3.58;;
23101;SDS011;11720;51.214;22.574;2022-08-16T13:18:51;4.78;;;3.92;;
23101;SDS011;11720;51.214;22.574;2022-08-16T13:21:16;5.00;;;3.70;;
23101;SDS011;11720;51.214;22.574;2022-08-16T13:23:42;4.30;;;3.40;;
23101;SDS011;11720;51.214;22.574;2022-08-16T13:26:08;5.70;;;3.72;;
23101;SDS011;11720;51.214;22.574;2022-08-16T13:28:34;4.53;;;3.63;;
23101;SDS011;11720;51.214;22.574;2022-08-16T13:31:00;8.50;;;4.03;;
23101;SDS011;11720;51.214;22.574;2022-08-16T13:33:30;5.18;;;3.92;;
23101;SDS011;11720;51.214;22.574;2022-08-16T13:36:01;7.28;;;4.30;;
23101;SDS011;11720;51.214;22.574;2022-08-16T13:38:31;5.38;;;3.90;;
23101;SDS011;11720;51.214;22.574;2022-08-16T13:40:57;5.60;;;3.97;;
23101;SDS011;11720;51.214;22.574;2022-08-16T13:43:27;5.75;;;3.60;;
23101;SDS011;11720;51.214;22.574;2022-08-16T13:45:55;7.53;;;4.00;;
23101;SDS011;11720;51.214;22.574;2022-08-16T13:48:24;5.13;;;3.63;;
23101;SDS011;11720;51.214;22.574;2022-08-16T13:50:51;4.60;;;3.70;;
23101;SDS011;11720;51.214;22.574;2022-08-16T13:53:18;6.63;;;3.92;;
23101;SDS011;11720;51.214;22.574;2022-08-16T13:55:45;6.68;;;4.00;;
23101;SDS011;11720;51.214;22.574;2022-08-16T13:58:12;4.80;;;4.15;;
23101;SDS011;11720;51.214;22.574;2022-08-16T14:00:37;5.03;;;3.97;;
23101;SDS011;11720;51.214;22.574;2022-08-16T14:03:04;5.18;;;3.78;;
23101;SDS011;11720;51.214;22.574;2022-08-16T14:05:31;7.65;;;4.05;;
23101;SDS011;11720;51.214;22.574;2022-08-16T14:07:57;8.35;;;5.20;;
23101;SDS011;11720;51.214;22.574;2022-08-16T14:10:23;5.45;;;3.90;;
23101;SDS011;11720;51.214;22.574;2022-08-16T14:12:49;8.15;;;3.83;;
23101;SDS011;11720;51.214;22.574;2022-08-16T14:15:15;6.40;;;4.40;;
23101;SDS011;11720;51.214;22.574;2022-08-16T14:17:42;4.38;;;3.38;;
23101;SDS011;11720;51.214;22.574;2022-08-16T14:20:08;5.72;;;4.35;;
23101;SDS011;11720;51.214;22.574;2022-08-16T14:22:35;4.85;;;3.40;;
23101;SDS011;11720;51.214;22.574;2022-08-16T14:25:04;5.30;;;3.67;;
23101;SDS011;11720;51.214;22.574;2022-08-16T14:27:33;4.97;;;3.85;;
23101;SDS011;11720;51.214;22.574;2022-08-16T14:29:58;5.70;;;4.07;;
23101;SDS011;11720;51.214;22.574;2022-08-16T14:32:26;5.25;;;3.60;;
23101;SDS011;11720;51.214;22.574;2022-08-16T14:34:54;5.50;;;3.90;;
23101;SDS011;11720;51.214;22.574;2022-08-16T14:37:21;5.75;;;4.07;;